sensor_id;sensor_type;location;lat;lon;timestamp;pressure;altitude;pressure_sealevel;temperature
18704;BMP180;9481;48.796;9.210;2022-09-09T00:02:23;96272.00;;;22.50
18704;BMP180;9481;48.796;9.210;2022-09-09T00:05:08;96277.00;;;22.60
18704;BMP180;9481;48.796;9.210;2022-09-09T00:08:02;96272.00;;;22.50
18704;BMP180;9481;48.796;9.210;2022-09-09T00:10:37;96266.00;;;22.50
18704;BMP180;9481;48.796;9.210;2022-09-09T00:13:48;96270.00;;;22.50
18704;BMP180;9481;48.796;9.210;2022-09-09T00:21:14;96266.00;;;22.50
18704;BMP180;9481;48.796;9.210;2022-09-09T00:23:54;96257.00;;;22.50
18704;BMP180;9481;48.796;9.210;2022-09-09T00:26:38;96260.00;;;22.40
18704;BMP180;9481;48.796;9.210;2022-09-09T00:31:38;96257.00;;;22.50
18704;BMP180;9481;48.796;9.210;2022-09-09T00:34:18;96265.00;;;22.40
18704;BMP180;9481;48.796;9.210;2022-09-09T00:36:48;96260.00;;;22.50
18704;BMP180;9481;48.796;9.210;2022-09-09T00:39:39;96250.00;;;22.40
18704;BMP180;9481;48.796;9.210;2022-09-09T00:42:42;96251.00;;;22.40
18704;BMP180;9481;48.796;9.210;2022-09-09T00:48:11;96264.00;;;22.40
18704;BMP180;9481;48.796;9.210;2022-09-09T00:50:55;96258.00;;;22.40
18704;BMP180;9481;48.796;9.210;2022-09-09T00:56:25;96260.00;;;22.40
18704;BMP180;9481;48.796;9.210;2022-09-09T00:58:59;96270.00;;;22.40
18704;BMP180;9481;48.796;9.210;2022-09-09T01:01:26;96262.00;;;22.40
18704;BMP180;9481;48.796;9.210;2022-09-09T01:03:56;96259.00;;;22.40
18704;BMP180;9481;48.796;9.210;2022-09-09T01:06:37;96261.00;;;22.30
18704;BMP180;9481;48.796;9.210;2022-09-09T01:09:29;96249.00;;;22.30
18704;BMP180;9481;48.796;9.210;2022-09-09T01:12:24;96250.00;;;22.30
18704;BMP180;9481;48.796;9.210;2022-09-09T01:15:18;96243.00;;;22.30
18704;BMP180;9481;48.796;9.210;2022-09-09T01:18:04;96260.00;;;22.30
18704;BMP180;9481;48.796;9.210;2022-09-09T01:21:07;96252.00;;;22.30
18704;BMP180;9481;48.796;9.210;2022-09-09T01:24:08;96261.00;;;22.30
18704;BMP180;9481;48.796;9.210;2022-09-09T01:26:46;96269.00;;;22.30
18704;BMP180;9481;48.796;9.210;2022-09-09T01:29:16;96271.00;;;22.40
18704;BMP180;9481;48.796;9.210;2022-09-09T01:31:56;96275.00;;;22.40
18704;BMP180;9481;48.796;9.210;2022-09-09T01:34:28;96269.00;;;22.40
18704;BMP180;9481;48.796;9.210;2022-09-09T01:37:08;96278.00;;;22.40
18704;BMP180;9481;48.796;9.210;2022-09-09T01:39:39;96276.00;;;22.40
18704;BMP180;9481;48.796;9.210;2022-09-09T01:42:11;96270.00;;;22.40
18704;BMP180;9481;48.796;9.210;2022-09-09T01:44:38;96259.00;;;22.40
18704;BMP180;9481;48.796;9.210;2022-09-09T01:47:05;96259.00;;;22.40
18704;BMP180;9481;48.796;9.210;2022-09-09T01:49:31;96251.00;;;22.40
18704;BMP180;9481;48.796;9.210;2022-09-09T01:51:59;96250.00;;;22.50
18704;BMP180;9481;48.796;9.210;2022-09-09T01:54:29;96252.00;;;22.40
18704;BMP180;9481;48.796;9.210;2022-09-09T02:00:22;96263.00;;;22.40
18704;BMP180;9481;48.796;9.210;2022-09-09T02:03:00;96264.00;;;22.40
18704;BMP180;9481;48.796;9.210;2022-09-09T02:06:00;96256.00;;;22.30
18704;BMP180;9481;48.796;9.210;2022-09-09T02:08:50;96267.00;;;22.30
18704;BMP180;9481;48.796;9.210;2022-09-09T02:11:18;96277.00;;;22.40
18704;BMP180;9481;48.796;9.210;2022-09-09T02:13:47;96274.00;;;22.30
18704;BMP180;9481;48.796;9.210;2022-09-09T02:19:32;96260.00;;;22.20
18704;BMP180;9481;48.796;9.210;2022-09-09T02:22:01;96266.00;;;22.30
18704;BMP180;9481;48.796;9.210;2022-09-09T02:24:32;96265.00;;;22.20
18704;BMP180;9481;48.796;9.210;2022-09-09T02:27:04;96258.00;;;22.20
18704;BMP180;9481;48.796;9.210;2022-09-09T02:29:41;96258.00;;;22.20
18704;BMP180;9481;48.796;9.210;2022-09-09T02:32:19;96254.00;;;22.10
18704;BMP180;9481;48.796;9.210;2022-09-09T02:34:50;96262.00;;;22.20
18704;BMP180;9481;48.796;9.210;2022-09-09T02:37:20;96259.00;;;22.20
18704;BMP180;9481;48.796;9.210;2022-09-09T02:39:47;96262.00;;;22.10
18704;BMP180;9481;48.796;9.210;2022-09-09T02:42:13;96263.00;;;22.10
18704;BMP180;9481;48.796;9.210;2022-09-09T02:44:41;96265.00;;;22.10
18704;BMP180;9481;48.796;9.210;2022-09-09T02:47:50;96251.00;;;22.00
18704;BMP180;9481;48.796;9.210;2022-09-09T02:50:26;96250.00;;;22.00
18704;BMP180;9481;48.796;9.210;2022-09-09T02:53:19;96257.00;;;22.00
18704;BMP180;9481;48.796;9.210;2022-09-09T02:55:48;96248.00;;;22.00
18704;BMP180;9481;48.796;9.210;2022-09-09T02:58:18;96246.00;;;22.00
18704;BMP180;9481;48.796;9.210;2022-09-09T03:00:48;96250.00;;;22.00
18704;BMP180;9481;48.796;9.210;2022-09-09T03:03:15;96249.00;;;22.00
18704;BMP180;9481;48.796;9.210;2022-09-09T03:05:43;96242.00;;;22.10
18704;BMP180;9481;48.796;9.210;2022-09-09T03:08:10;96248.00;;;22.00
18704;BMP180;9481;48.796;9.210;2022-09-09T03:10:36;96250.00;;;22.10
18704;BMP180;9481;48.796;9.210;2022-09-09T03:13:03;96253.00;;;22.00
18704;BMP180;9481;48.796;9.210;2022-09-09T03:15:32;96253.00;;;22.10
18704;BMP180;9481;48.796;9.210;2022-09-09T03:17:58;96257.00;;;22.10
18704;BMP180;9481;48.796;9.210;2022-09-09T03:20:27;96260.00;;;22.00
18704;BMP180;9481;48.796;9.210;2022-09-09T03:22:55;96256.00;;;22.00
18704;BMP180;9481;48.796;9.210;2022-09-09T03:25:21;96257.00;;;22.00
18704;BMP180;9481;48.796;9.210;2022-09-09T03:27:50;96266.00;;;22.00
18704;BMP180;9481;48.796;9.210;2022-09-09T03:30:23;96255.00;;;22.00
18704;BMP180;9481;48.796;9.210;2022-09-09T03:32:50;96258.00;;;22.00
18704;BMP180;9481;48.796;9.210;2022-09-09T03:35:16;96264.00;;;22.00
18704;BMP180;9481;48.796;9.210;2022-09-09T03:37:42;96253.00;;;22.00
18704;BMP180;9481;48.796;9.210;2022-09-09T03:40:09;96261.00;;;21.90
18704;BMP180;9481;48.796;9.210;2022-09-09T03:42:39;96253.00;;;21.90
18704;BMP180;9481;48.796;9.210;2022-09-09T03:45:08;96247.00;;;21.90
18704;BMP180;9481;48.796;9.210;2022-09-09T03:47:35;96259.00;;;21.90
18704;BMP180;9481;48.796;9.210;2022-09-09T03:50:00;96249.00;;;21.90
18704;BMP180;9481;48.796;9.210;2022-09-09T03:52:26;96257.00;;;21.90
18704;BMP180;9481;48.796;9.210;2022-09-09T03:54:53;96250.00;;;21.80
18704;BMP180;9481;48.796;9.210;2022-09-09T03:57:20;96247.00;;;21.80
18704;BMP180;9481;48.796;9.210;2022-09-09T03:59:45;96252.00;;;21.80
18704;BMP180;9481;48.796;9.210;2022-09-09T04:02:11;96257.00;;;21.80
18704;BMP180;9481;48.796;9.210;2022-09-09T04:04:37;96259.00;;;21.80
18704;BMP180;9481;48.796;9.210;2022-09-09T04:07:03;96250.00;;;21.80
18704;BMP180;9481;48.796;9.210;2022-09-09T04:09:31;96258.00;;;21.70
18704;BMP180;9481;48.796;9.210;2022-09-09T04:11:57;96262.00;;;21.70
18704;BMP180;9481;48.796;9.210;2022-09-09T04:14:23;96263.00;;;21.70
18704;BMP180;9481;48.796;9.210;2022-09-09T04:16:48;96248.00;;;21.60
18704;BMP180;9481;48.796;9.210;2022-09-09T04:19:14;96252.00;;;21.60
18704;BMP180;9481;48.796;9.210;2022-09-09T04:21:41;96258.00;;;21.60
18704;BMP180;9481;48.796;9.210;2022-09-09T04:24:08;96263.00;;;21.50
18704;BMP180;9481;48.796;9.210;2022-09-09T04:26:35;96259.00;;;21.50
18704;BMP180;9481;48.796;9.210;2022-09-09T04:29:03;96262.00;;;21.50
18704;BMP180;9481;48.796;9.210;2022-09-09T04:31:29;96263.00;;;21.50
18704;BMP180;9481;48.796;9.210;2022-09-09T04:33:55;96263.00;;;21.40
18704;BMP180;9481;48.796;9.210;2022-09-09T04:36:22;96264.00;;;21.40
18704;BMP180;9481;48.796;9.210;2022-09-09T04:38:47;96256.00;;;21.40
18704;BMP180;9481;48.796;9.210;2022-09-09T04:41:16;96257.00;;;21.40
18704;BMP180;9481;48.796;9.210;2022-09-09T04:43:42;96253.00;;;21.40
18704;BMP180;9481;48.796;9.210;2022-09-09T04:46:08;96256.00;;;21.30
18704;BMP180;9481;48.796;9.210;2022-09-09T04:48:34;96262.00;;;21.30
18704;BMP180;9481;48.796;9.210;2022-09-09T04:51:04;96253.00;;;21.30
18704;BMP180;9481;48.796;9.210;2022-09-09T04:53:30;96260.00;;;21.40
18704;BMP180;9481;48.796;9.210;2022-09-09T04:56:12;96279.00;;;21.40
18704;BMP180;9481;48.796;9.210;2022-09-09T04:58:40;96274.00;;;21.40
18704;BMP180;9481;48.796;9.210;2022-09-09T05:01:18;96265.00;;;21.50
18704;BMP180;9481;48.796;9.210;2022-09-09T05:03:44;96272.00;;;21.60
18704;BMP180;9481;48.796;9.210;2022-09-09T05:06:14;96266.00;;;21.60
18704;BMP180;9481;48.796;9.210;2022-09-09T05:08:42;96274.00;;;21.70
18704;BMP180;9481;48.796;9.210;2022-09-09T05:11:19;96276.00;;;21.70
18704;BMP180;9481;48.796;9.210;2022-09-09T05:13:46;96284.00;;;21.80
18704;BMP180;9481;48.796;9.210;2022-09-09T05:16:13;96278.00;;;21.90
18704;BMP180;9481;48.796;9.210;2022-09-09T05:18:40;96278.00;;;21.90
18704;BMP180;9481;48.796;9.210;2022-09-09T05:21:07;96280.00;;;22.00
18704;BMP180;9481;48.796;9.210;2022-09-09T05:23:34;96275.00;;;22.00
18704;BMP180;9481;48.796;9.210;2022-09-09T05:26:00;96280.00;;;22.00
18704;BMP180;9481;48.796;9.210;2022-09-09T05:28:27;96274.00;;;22.00
18704;BMP180;9481;48.796;9.210;2022-09-09T05:31:05;96274.00;;;22.00
18704;BMP180;9481;48.796;9.210;2022-09-09T05:33:35;96269.00;;;22.00
18704;BMP180;9481;48.796;9.210;2022-09-09T05:36:05;96269.00;;;22.00
18704;BMP180;9481;48.796;9.210;2022-09-09T05:38:32;96277.00;;;22.10
18704;BMP180;9481;48.796;9.210;2022-09-09T05:40:59;96272.00;;;22.10
18704;BMP180;9481;48.796;9.210;2022-09-09T05:43:26;96286.00;;;22.10
18704;BMP180;9481;48.796;9.210;2022-09-09T05:46:05;96289.00;;;22.00
18704;BMP180;9481;48.796;9.210;2022-09-09T05:48:33;96292.00;;;22.00
18704;BMP180;9481;48.796;9.210;2022-09-09T05:51:00;96291.00;;;22.00
18704;BMP180;9481;48.796;9.210;2022-09-09T05:53:29;96297.00;;;22.00
18704;BMP180;9481;48.796;9.210;2022-09-09T05:56:08;96287.00;;;21.90
18704;BMP180;9481;48.796;9.210;2022-09-09T05:58:38;96295.00;;;21.90
18704;BMP180;9481;48.796;9.210;2022-09-09T06:01:10;96309.00;;;21.90
18704;BMP180;9481;48.796;9.210;2022-09-09T06:03:39;96311.00;;;21.80
18704;BMP180;9481;48.796;9.210;2022-09-09T06:06:08;96310.00;;;21.80
18704;BMP180;9481;48.796;9.210;2022-09-09T06:08:40;96308.00;;;21.80
18704;BMP180;9481;48.796;9.210;2022-09-09T06:11:13;96310.00;;;21.80
18704;BMP180;9481;48.796;9.210;2022-09-09T06:13:39;96295.00;;;21.80
18704;BMP180;9481;48.796;9.210;2022-09-09T06:16:16;96302.00;;;21.80
18704;BMP180;9481;48.796;9.210;2022-09-09T06:18:43;96299.00;;;21.80
18704;BMP180;9481;48.796;9.210;2022-09-09T06:21:20;96284.00;;;21.80
18704;BMP180;9481;48.796;9.210;2022-09-09T06:23:47;96298.00;;;21.80
18704;BMP180;9481;48.796;9.210;2022-09-09T06:28:46;96286.00;;;21.80
18704;BMP180;9481;48.796;9.210;2022-09-09T06:31:15;96294.00;;;21.80
18704;BMP180;9481;48.796;9.210;2022-09-09T06:33:49;96303.00;;;21.70
18704;BMP180;9481;48.796;9.210;2022-09-09T06:36:22;96296.00;;;21.80
18704;BMP180;9481;48.796;9.210;2022-09-09T06:38:48;96299.00;;;21.80
18704;BMP180;9481;48.796;9.210;2022-09-09T06:41:17;96307.00;;;21.80
18704;BMP180;9481;48.796;9.210;2022-09-09T06:43:45;96302.00;;;21.80
18704;BMP180;9481;48.796;9.210;2022-09-09T06:46:14;96310.00;;;21.80
18704;BMP180;9481;48.796;9.210;2022-09-09T06:48:41;96308.00;;;21.80
18704;BMP180;9481;48.796;9.210;2022-09-09T06:51:32;96298.00;;;21.80
18704;BMP180;9481;48.796;9.210;2022-09-09T06:54:00;96303.00;;;21.90
18704;BMP180;9481;48.796;9.210;2022-09-09T06:56:29;96296.00;;;21.90
18704;BMP180;9481;48.796;9.210;2022-09-09T06:58:58;96299.00;;;22.00
18704;BMP180;9481;48.796;9.210;2022-09-09T07:01:28;96318.00;;;22.00
18704;BMP180;9481;48.796;9.210;2022-09-09T07:03:56;96309.00;;;22.00
18704;BMP180;9481;48.796;9.210;2022-09-09T07:06:30;96307.00;;;22.00
18704;BMP180;9481;48.796;9.210;2022-09-09T07:08:59;96299.00;;;22.10
18704;BMP180;9481;48.796;9.210;2022-09-09T07:11:29;96317.00;;;22.20
18704;BMP180;9481;48.796;9.210;2022-09-09T07:13:58;96308.00;;;22.20
18704;BMP180;9481;48.796;9.210;2022-09-09T07:16:25;96315.00;;;22.30
18704;BMP180;9481;48.796;9.210;2022-09-09T07:18:53;96319.00;;;22.30
18704;BMP180;9481;48.796;9.210;2022-09-09T07:21:25;96324.00;;;22.40
18704;BMP180;9481;48.796;9.210;2022-09-09T07:23:52;96309.00;;;22.40
18704;BMP180;9481;48.796;9.210;2022-09-09T07:26:21;96314.00;;;22.50
18704;BMP180;9481;48.796;9.210;2022-09-09T07:28:48;96313.00;;;22.60
18704;BMP180;9481;48.796;9.210;2022-09-09T07:31:21;96302.00;;;22.70
18704;BMP180;9481;48.796;9.210;2022-09-09T07:33:48;96304.00;;;22.80
18704;BMP180;9481;48.796;9.210;2022-09-09T07:36:29;96304.00;;;22.80
18704;BMP180;9481;48.796;9.210;2022-09-09T07:39:02;96311.00;;;22.90
18704;BMP180;9481;48.796;9.210;2022-09-09T07:41:57;96315.00;;;22.90
18704;BMP180;9481;48.796;9.210;2022-09-09T07:44:24;96309.00;;;23.00
18704;BMP180;9481;48.796;9.210;2022-09-09T07:46:50;96295.00;;;23.20
18704;BMP180;9481;48.796;9.210;2022-09-09T07:49:16;96314.00;;;23.30
18704;BMP180;9481;48.796;9.210;2022-09-09T07:51:46;96312.00;;;23.40
18704;BMP180;9481;48.796;9.210;2022-09-09T07:54:15;96311.00;;;23.50
18704;BMP180;9481;48.796;9.210;2022-09-09T07:56:42;96329.00;;;23.60
18704;BMP180;9481;48.796;9.210;2022-09-09T07:59:08;96326.00;;;23.70
18704;BMP180;9481;48.796;9.210;2022-09-09T08:01:38;96323.00;;;23.80
18704;BMP180;9481;48.796;9.210;2022-09-09T08:04:14;96341.00;;;24.00
18704;BMP180;9481;48.796;9.210;2022-09-09T08:06:53;96332.00;;;24.20
18704;BMP180;9481;48.796;9.210;2022-09-09T08:09:20;96327.00;;;24.30
18704;BMP180;9481;48.796;9.210;2022-09-09T08:11:47;96334.00;;;24.40
18704;BMP180;9481;48.796;9.210;2022-09-09T08:14:13;96342.00;;;24.50
18704;BMP180;9481;48.796;9.210;2022-09-09T08:16:43;96346.00;;;24.50
18704;BMP180;9481;48.796;9.210;2022-09-09T08:19:09;96326.00;;;24.50
18704;BMP180;9481;48.796;9.210;2022-09-09T08:21:38;96340.00;;;24.60
18704;BMP180;9481;48.796;9.210;2022-09-09T08:24:08;96343.00;;;24.60
18704;BMP180;9481;48.796;9.210;2022-09-09T08:26:42;96338.00;;;24.70
18704;BMP180;9481;48.796;9.210;2022-09-09T08:29:10;96343.00;;;24.80
18704;BMP180;9481;48.796;9.210;2022-09-09T08:31:42;96346.00;;;24.90
18704;BMP180;9481;48.796;9.210;2022-09-09T08:34:09;96346.00;;;25.00
18704;BMP180;9481;48.796;9.210;2022-09-09T08:36:42;96354.00;;;25.00
18704;BMP180;9481;48.796;9.210;2022-09-09T08:39:11;96356.00;;;25.10
18704;BMP180;9481;48.796;9.210;2022-09-09T08:55:52;96355.00;;;25.30
18704;BMP180;9481;48.796;9.210;2022-09-09T08:58:24;96349.00;;;25.40
18704;BMP180;9481;48.796;9.210;2022-09-09T09:07:26;96346.00;;;25.80
18704;BMP180;9481;48.796;9.210;2022-09-09T09:10:29;96350.00;;;26.00
18704;BMP180;9481;48.796;9.210;2022-09-09T09:12:59;96343.00;;;26.20
18704;BMP180;9481;48.796;9.210;2022-09-09T09:15:35;96345.00;;;26.30
18704;BMP180;9481;48.796;9.210;2022-09-09T09:18:03;96333.00;;;26.40
18704;BMP180;9481;48.796;9.210;2022-09-09T09:21:20;96345.00;;;26.50
18704;BMP180;9481;48.796;9.210;2022-09-09T09:23:58;96358.00;;;26.60
18704;BMP180;9481;48.796;9.210;2022-09-09T09:26:34;96370.00;;;26.60
18704;BMP180;9481;48.796;9.210;2022-09-09T09:29:11;96387.00;;;26.50
18704;BMP180;9481;48.796;9.210;2022-09-09T09:31:37;96393.00;;;26.40
18704;BMP180;9481;48.796;9.210;2022-09-09T09:34:03;96374.00;;;26.10
18704;BMP180;9481;48.796;9.210;2022-09-09T09:36:43;96363.00;;;25.90
18704;BMP180;9481;48.796;9.210;2022-09-09T09:39:30;96350.00;;;25.70
18704;BMP180;9481;48.796;9.210;2022-09-09T09:41:57;96352.00;;;25.70
18704;BMP180;9481;48.796;9.210;2022-09-09T09:46:52;96355.00;;;25.70
18704;BMP180;9481;48.796;9.210;2022-09-09T09:49:18;96348.00;;;25.80
18704;BMP180;9481;48.796;9.210;2022-09-09T09:51:44;96333.00;;;25.90
18704;BMP180;9481;48.796;9.210;2022-09-09T09:56:39;96334.00;;;26.10
18704;BMP180;9481;48.796;9.210;2022-09-09T09:59:05;96329.00;;;26.20
18704;BMP180;9481;48.796;9.210;2022-09-09T10:01:44;96329.00;;;26.40
18704;BMP180;9481;48.796;9.210;2022-09-09T10:04:23;96323.00;;;26.40
18704;BMP180;9481;48.796;9.210;2022-09-09T10:06:50;96321.00;;;26.50
18704;BMP180;9481;48.796;9.210;2022-09-09T10:09:30;96326.00;;;26.60
18704;BMP180;9481;48.796;9.210;2022-09-09T10:15:35;96326.00;;;26.80
18704;BMP180;9481;48.796;9.210;2022-09-09T10:18:57;96317.00;;;26.80
18704;BMP180;9481;48.796;9.210;2022-09-09T10:25:01;96317.00;;;27.20
18704;BMP180;9481;48.796;9.210;2022-09-09T10:33:07;96314.00;;;27.70
18704;BMP180;9481;48.796;9.210;2022-09-09T10:38:30;96318.00;;;28.00
18704;BMP180;9481;48.796;9.210;2022-09-09T10:41:32;96317.00;;;28.20
18704;BMP180;9481;48.796;9.210;2022-09-09T10:44:17;96316.00;;;28.40
18704;BMP180;9481;48.796;9.210;2022-09-09T10:47:37;96308.00;;;28.40
18704;BMP180;9481;48.796;9.210;2022-09-09T10:50:24;96310.00;;;28.40
18704;BMP180;9481;48.796;9.210;2022-09-09T10:53:47;96314.00;;;28.40
18704;BMP180;9481;48.796;9.210;2022-09-09T10:56:20;96309.00;;;28.40
18704;BMP180;9481;48.796;9.210;2022-09-09T10:59:06;96302.00;;;28.40
18704;BMP180;9481;48.796;9.210;2022-09-09T11:01:51;96303.00;;;28.40
18704;BMP180;9481;48.796;9.210;2022-09-09T11:04:40;96301.00;;;28.40
18704;BMP180;9481;48.796;9.210;2022-09-09T11:07:13;96300.00;;;28.40
18704;BMP180;9481;48.796;9.210;2022-09-09T11:09:53;96294.00;;;28.50
18704;BMP180;9481;48.796;9.210;2022-09-09T11:12:24;96291.00;;;28.50
18704;BMP180;9481;48.796;9.210;2022-09-09T11:15:14;96290.00;;;28.30
18704;BMP180;9481;48.796;9.210;2022-09-09T11:17:52;96295.00;;;28.20
18704;BMP180;9481;48.796;9.210;2022-09-09T11:20:20;96303.00;;;28.10
18704;BMP180;9481;48.796;9.210;2022-09-09T11:23:01;96308.00;;;27.80
18704;BMP180;9481;48.796;9.210;2022-09-09T11:25:40;96297.00;;;27.70
18704;BMP180;9481;48.796;9.210;2022-09-09T11:31:46;96308.00;;;27.10
18704;BMP180;9481;48.796;9.210;2022-09-09T11:40:30;96341.00;;;26.40
18704;BMP180;9481;48.796;9.210;2022-09-09T11:43:11;96333.00;;;26.20
18704;BMP180;9481;48.796;9.210;2022-09-09T11:45:41;96334.00;;;26.10
18704;BMP180;9481;48.796;9.210;2022-09-09T11:51:10;96320.00;;;25.90
18704;BMP180;9481;48.796;9.210;2022-09-09T11:54:44;96329.00;;;25.90
18704;BMP180;9481;48.796;9.210;2022-09-09T11:56:44;96330.00;;;25.90
18704;BMP180;9481;48.796;9.210;2022-09-09T11:59:31;96332.00;;;26.00
18704;BMP180;9481;48.796;9.210;2022-09-09T12:02:14;96315.00;;;26.10
18704;BMP180;9481;48.796;9.210;2022-09-09T12:04:59;96323.00;;;26.30
18704;BMP180;9481;48.796;9.210;2022-09-09T12:12:46;96331.00;;;26.50
18704;BMP180;9481;48.796;9.210;2022-09-09T12:17:56;96328.00;;;26.40
18704;BMP180;9481;48.796;9.210;2022-09-09T12:20:33;96333.00;;;26.30
18704;BMP180;9481;48.796;9.210;2022-09-09T12:23:52;96322.00;;;26.20
18704;BMP180;9481;48.796;9.210;2022-09-09T12:29:23;96318.00;;;26.40
18704;BMP180;9481;48.796;9.210;2022-09-09T12:32:06;96316.00;;;26.60
18704;BMP180;9481;48.796;9.210;2022-09-09T12:34:51;96311.00;;;26.80
18704;BMP180;9481;48.796;9.210;2022-09-09T12:37:44;96303.00;;;27.00
18704;BMP180;9481;48.796;9.210;2022-09-09T12:40:33;96311.00;;;27.20
18704;BMP180;9481;48.796;9.210;2022-09-09T12:43:22;96301.00;;;27.30
18704;BMP180;9481;48.796;9.210;2022-09-09T12:45:50;96295.00;;;27.50
18704;BMP180;9481;48.796;9.210;2022-09-09T12:48:39;96304.00;;;27.50
18704;BMP180;9481;48.796;9.210;2022-09-09T12:51:26;96301.00;;;27.40
18704;BMP180;9481;48.796;9.210;2022-09-09T12:53:55;96290.00;;;27.40
18704;BMP180;9481;48.796;9.210;2022-09-09T12:56:28;96303.00;;;27.40
18704;BMP180;9481;48.796;9.210;2022-09-09T12:58:57;96313.00;;;27.50
18704;BMP180;9481;48.796;9.210;2022-09-09T13:01:32;96290.00;;;27.60
18704;BMP180;9481;48.796;9.210;2022-09-09T13:03:59;96295.00;;;27.60
18704;BMP180;9481;48.796;9.210;2022-09-09T13:06:32;96285.00;;;27.60
18704;BMP180;9481;48.796;9.210;2022-09-09T13:09:01;96299.00;;;27.50
18704;BMP180;9481;48.796;9.210;2022-09-09T13:11:37;96293.00;;;27.40
18704;BMP180;9481;48.796;9.210;2022-09-09T13:14:04;96289.00;;;27.30
18704;BMP180;9481;48.796;9.210;2022-09-09T13:16:35;96297.00;;;27.10
18704;BMP180;9481;48.796;9.210;2022-09-09T13:19:08;96287.00;;;27.00
18704;BMP180;9481;48.796;9.210;2022-09-09T13:21:39;96289.00;;;27.00
18704;BMP180;9481;48.796;9.210;2022-09-09T13:24:25;96279.00;;;27.00
18704;BMP180;9481;48.796;9.210;2022-09-09T13:27:28;96282.00;;;27.00
18704;BMP180;9481;48.796;9.210;2022-09-09T13:29:54;96283.00;;;27.20
18704;BMP180;9481;48.796;9.210;2022-09-09T13:32:24;96264.00;;;27.30
18704;BMP180;9481;48.796;9.210;2022-09-09T13:35:01;96274.00;;;27.50
18704;BMP180;9481;48.796;9.210;2022-09-09T13:37:37;96273.00;;;27.60
18704;BMP180;9481;48.796;9.210;2022-09-09T13:40:06;96279.00;;;27.80
18704;BMP180;9481;48.796;9.210;2022-09-09T13:42:37;96274.00;;;27.90
18704;BMP180;9481;48.796;9.210;2022-09-09T13:45:05;96280.00;;;28.10
18704;BMP180;9481;48.796;9.210;2022-09-09T13:47:36;96265.00;;;28.10
18704;BMP180;9481;48.796;9.210;2022-09-09T13:50:23;96263.00;;;27.90
18704;BMP180;9481;48.796;9.210;2022-09-09T13:52:57;96276.00;;;27.90
18704;BMP180;9481;48.796;9.210;2022-09-09T13:55:26;96267.00;;;27.90
18704;BMP180;9481;48.796;9.210;2022-09-09T13:58:01;96263.00;;;27.90
18704;BMP180;9481;48.796;9.210;2022-09-09T14:00:33;96271.00;;;27.90
18704;BMP180;9481;48.796;9.210;2022-09-09T14:03:00;96265.00;;;28.00
18704;BMP180;9481;48.796;9.210;2022-09-09T14:05:28;96271.00;;;28.10
18704;BMP180;9481;48.796;9.210;2022-09-09T14:07:55;96270.00;;;28.10
18704;BMP180;9481;48.796;9.210;2022-09-09T14:10:21;96265.00;;;28.00
18704;BMP180;9481;48.796;9.210;2022-09-09T14:12:47;96269.00;;;28.00
18704;BMP180;9481;48.796;9.210;2022-09-09T14:15:13;96266.00;;;28.10
18704;BMP180;9481;48.796;9.210;2022-09-09T14:17:40;96260.00;;;28.10
18704;BMP180;9481;48.796;9.210;2022-09-09T14:20:07;96265.00;;;28.20
18704;BMP180;9481;48.796;9.210;2022-09-09T14:22:35;96268.00;;;28.30
18704;BMP180;9481;48.796;9.210;2022-09-09T14:25:03;96258.00;;;28.40
18704;BMP180;9481;48.796;9.210;2022-09-09T14:27:28;96263.00;;;28.40
18704;BMP180;9481;48.796;9.210;2022-09-09T14:29:55;96270.00;;;28.50
18704;BMP180;9481;48.796;9.210;2022-09-09T14:32:21;96265.00;;;28.40
18704;BMP180;9481;48.796;9.210;2022-09-09T14:34:47;96253.00;;;28.50
18704;BMP180;9481;48.796;9.210;2022-09-09T14:37:16;96262.00;;;28.50
18704;BMP180;9481;48.796;9.210;2022-09-09T14:39:42;96250.00;;;28.50
18704;BMP180;9481;48.796;9.210;2022-09-09T14:42:13;96247.00;;;28.50
18704;BMP180;9481;48.796;9.210;2022-09-09T14:44:39;96256.00;;;28.40
18704;BMP180;9481;48.796;9.210;2022-09-09T14:47:06;96248.00;;;28.40
18704;BMP180;9481;48.796;9.210;2022-09-09T14:49:34;96267.00;;;28.30
18704;BMP180;9481;48.796;9.210;2022-09-09T14:52:00;96261.00;;;28.20
18704;BMP180;9481;48.796;9.210;2022-09-09T14:54:26;96277.00;;;28.20
18704;BMP180;9481;48.796;9.210;2022-09-09T14:56:51;96257.00;;;28.10
18704;BMP180;9481;48.796;9.210;2022-09-09T14:59:17;96262.00;;;28.10
18704;BMP180;9481;48.796;9.210;2022-09-09T15:01:43;96266.00;;;28.10
18704;BMP180;9481;48.796;9.210;2022-09-09T15:04:13;96257.00;;;28.00
18704;BMP180;9481;48.796;9.210;2022-09-09T15:06:40;96264.00;;;28.00
18704;BMP180;9481;48.796;9.210;2022-09-09T15:09:08;96273.00;;;28.00
18704;BMP180;9481;48.796;9.210;2022-09-09T15:11:36;96272.00;;;28.00
18704;BMP180;9481;48.796;9.210;2022-09-09T15:14:07;96273.00;;;27.90
18704;BMP180;9481;48.796;9.210;2022-09-09T15:16:34;96279.00;;;27.80
18704;BMP180;9481;48.796;9.210;2022-09-09T15:19:01;96275.00;;;27.80
18704;BMP180;9481;48.796;9.210;2022-09-09T15:21:31;96276.00;;;27.70
18704;BMP180;9481;48.796;9.210;2022-09-09T15:23:58;96276.00;;;27.70
18704;BMP180;9481;48.796;9.210;2022-09-09T15:26:25;96271.00;;;27.60
18704;BMP180;9481;48.796;9.210;2022-09-09T15:28:51;96275.00;;;27.50
18704;BMP180;9481;48.796;9.210;2022-09-09T15:31:24;96258.00;;;27.40
18704;BMP180;9481;48.796;9.210;2022-09-09T15:33:58;96260.00;;;27.40
18704;BMP180;9481;48.796;9.210;2022-09-09T15:36:31;96256.00;;;27.40
18704;BMP180;9481;48.796;9.210;2022-09-09T15:38:59;96252.00;;;27.40
18704;BMP180;9481;48.796;9.210;2022-09-09T15:41:26;96251.00;;;27.40
18704;BMP180;9481;48.796;9.210;2022-09-09T15:43:55;96251.00;;;27.30
18704;BMP180;9481;48.796;9.210;2022-09-09T15:46:37;96268.00;;;27.20
18704;BMP180;9481;48.796;9.210;2022-09-09T15:49:21;96264.00;;;27.10
18704;BMP180;9481;48.796;9.210;2022-09-09T15:51:55;96272.00;;;27.00
18704;BMP180;9481;48.796;9.210;2022-09-09T15:54:22;96280.00;;;26.90
18704;BMP180;9481;48.796;9.210;2022-09-09T15:56:55;96273.00;;;26.80
18704;BMP180;9481;48.796;9.210;2022-09-09T15:59:23;96264.00;;;26.70
18704;BMP180;9481;48.796;9.210;2022-09-09T16:01:49;96273.00;;;26.60
18704;BMP180;9481;48.796;9.210;2022-09-09T16:04:17;96276.00;;;26.50
18704;BMP180;9481;48.796;9.210;2022-09-09T16:06:50;96265.00;;;26.40
18704;BMP180;9481;48.796;9.210;2022-09-09T16:09:16;96270.00;;;26.40
18704;BMP180;9481;48.796;9.210;2022-09-09T16:11:42;96268.00;;;26.30
18704;BMP180;9481;48.796;9.210;2022-09-09T16:14:08;96270.00;;;26.20
18704;BMP180;9481;48.796;9.210;2022-09-09T16:16:34;96278.00;;;26.10
18704;BMP180;9481;48.796;9.210;2022-09-09T16:19:08;96271.00;;;26.00
18704;BMP180;9481;48.796;9.210;2022-09-09T16:21:45;96281.00;;;26.00
18704;BMP180;9481;48.796;9.210;2022-09-09T16:24:16;96288.00;;;25.90